sensor_id;sensor_type;location;lat;lon;timestamp;P1;durP1;ratioP1;P2;durP2;ratioP2
41139;SDS011;26881;48.784;9.192;2023-05-10T00:01:38;2.25;;;0.80;;
41139;SDS011;26881;48.784;9.192;2023-05-10T00:07:00;2.85;;;0.60;;
41139;SDS011;26881;48.784;9.192;2023-05-10T00:12:22;1.98;;;0.60;;
41139;SDS011;26881;48.784;9.192;2023-05-10T00:17:44;3.85;;;0.70;;
41139;SDS011;26881;48.784;9.192;2023-05-10T00:23:06;5.80;;;0.57;;
41139;SDS011;26881;48.784;9.192;2023-05-10T00:28:28;3.35;;;0.50;;
41139;SDS011;26881;48.784;9.192;2023-05-10T00:33:50;2.95;;;0.32;;
41139;SDS011;26881;48.784;9.192;2023-05-10T00:39:12;0.88;;;0.35;;
41139;SDS011;26881;48.784;9.192;2023-05-10T00:44:34;2.85;;;0.30;;
41139;SDS011;26881;48.784;9.192;2023-05-10T00:49:55;0.40;;;0.40;;
41139;SDS011;26881;48.784;9.192;2023-05-10T00:55:17;5.38;;;0.30;;
41139;SDS011;26881;48.784;9.192;2023-05-10T01:00:41;0.70;;;0.20;;
41139;SDS011;26881;48.784;9.192;2023-05-10T01:06:03;0.30;;;0.30;;
41139;SDS011;26881;48.784;9.192;2023-05-10T01:11:25;1.15;;;0.20;;
41139;SDS011;26881;48.784;9.192;2023-05-10T01:16:48;4.63;;;0.30;;
41139;SDS011;26881;48.784;9.192;2023-05-10T01:22:25;0.43;;;0.28;;
41139;SDS011;26881;48.784;9.192;2023-05-10T01:28:17;0.98;;;0.30;;
41139;SDS011;26881;48.784;9.192;2023-05-10T01:39:28;1.38;;;0.30;;
41139;SDS011;26881;48.784;9.192;2023-05-10T01:50:39;0.68;;;0.40;;
41139;SDS011;26881;48.784;9.192;2023-05-10T01:56:06;2.05;;;0.30;;
41139;SDS011;26881;48.784;9.192;2023-05-10T02:01:29;0.22;;;0.22;;
41139;SDS011;26881;48.784;9.192;2023-05-10T02:06:52;0.30;;;0.30;;
41139;SDS011;26881;48.784;9.192;2023-05-10T02:12:15;0.60;;;0.30;;
41139;SDS011;26881;48.784;9.192;2023-05-10T02:17:38;0.30;;;0.30;;
41139;SDS011;26881;48.784;9.192;2023-05-10T02:23:01;1.73;;;0.30;;
41139;SDS011;26881;48.784;9.192;2023-05-10T02:28:24;1.65;;;0.20;;
41139;SDS011;26881;48.784;9.192;2023-05-10T02:33:47;2.60;;;0.43;;
41139;SDS011;26881;48.784;9.192;2023-05-10T02:39:10;2.83;;;0.40;;
41139;SDS011;26881;48.784;9.192;2023-05-10T02:44:34;0.30;;;0.30;;
41139;SDS011;26881;48.784;9.192;2023-05-10T02:49:58;1.38;;;0.30;;
41139;SDS011;26881;48.784;9.192;2023-05-10T02:55:21;1.17;;;0.38;;
41139;SDS011;26881;48.784;9.192;2023-05-10T03:00:46;0.63;;;0.40;;
41139;SDS011;26881;48.784;9.192;2023-05-10T03:06:08;0.65;;;0.30;;
41139;SDS011;26881;48.784;9.192;2023-05-10T03:11:43;0.40;;;0.30;;
41139;SDS011;26881;48.784;9.192;2023-05-10T03:23:05;0.55;;;0.40;;
41139;SDS011;26881;48.784;9.192;2023-05-10T03:28:33;3.42;;;0.50;;
41139;SDS011;26881;48.784;9.192;2023-05-10T03:33:56;5.72;;;0.50;;
41139;SDS011;26881;48.784;9.192;2023-05-10T03:39:18;0.73;;;0.50;;
41139;SDS011;26881;48.784;9.192;2023-05-10T03:44:40;1.02;;;0.65;;
41139;SDS011;26881;48.784;9.192;2023-05-10T03:50:02;1.05;;;0.50;;
41139;SDS011;26881;48.784;9.192;2023-05-10T03:55:24;1.33;;;0.50;;
41139;SDS011;26881;48.784;9.192;2023-05-10T04:00:45;2.75;;;0.60;;
41139;SDS011;26881;48.784;9.192;2023-05-10T04:06:07;0.60;;;0.60;;
41139;SDS011;26881;48.784;9.192;2023-05-10T04:11:32;1.35;;;0.73;;
41139;SDS011;26881;48.784;9.192;2023-05-10T04:16:54;5.15;;;0.90;;
41139;SDS011;26881;48.784;9.192;2023-05-10T04:22:16;4.00;;;0.77;;
41139;SDS011;26881;48.784;9.192;2023-05-10T04:27:38;0.60;;;0.60;;
41139;SDS011;26881;48.784;9.192;2023-05-10T04:33:00;2.13;;;0.80;;
41139;SDS011;26881;48.784;9.192;2023-05-10T04:38:23;0.77;;;0.70;;
41139;SDS011;26881;48.784;9.192;2023-05-10T04:43:45;2.35;;;0.88;;
41139;SDS011;26881;48.784;9.192;2023-05-10T04:49:07;2.35;;;1.00;;
41139;SDS011;26881;48.784;9.192;2023-05-10T04:54:29;5.25;;;1.17;;
41139;SDS011;26881;48.784;9.192;2023-05-10T04:59:50;0.93;;;0.93;;
41139;SDS011;26881;48.784;9.192;2023-05-10T05:05:12;1.95;;;1.00;;
41139;SDS011;26881;48.784;9.192;2023-05-10T05:10:34;2.15;;;1.00;;
41139;SDS011;26881;48.784;9.192;2023-05-10T05:15:56;3.30;;;1.10;;
41139;SDS011;26881;48.784;9.192;2023-05-10T05:21:18;10.38;;;1.08;;
41139;SDS011;26881;48.784;9.192;2023-05-10T05:26:41;2.60;;;1.00;;
41139;SDS011;26881;48.784;9.192;2023-05-10T05:32:03;1.85;;;1.40;;
41139;SDS011;26881;48.784;9.192;2023-05-10T05:37:25;1.67;;;1.10;;
41139;SDS011;26881;48.784;9.192;2023-05-10T05:42:47;5.22;;;1.45;;
41139;SDS011;26881;48.784;9.192;2023-05-10T05:48:08;2.42;;;1.23;;
41139;SDS011;26881;48.784;9.192;2023-05-10T05:53:30;2.30;;;0.90;;
41139;SDS011;26881;48.784;9.192;2023-05-10T05:58:52;2.45;;;1.20;;
41139;SDS011;26881;48.784;9.192;2023-05-10T06:04:14;2.80;;;0.90;;
41139;SDS011;26881;48.784;9.192;2023-05-10T06:09:36;2.65;;;0.90;;
41139;SDS011;26881;48.784;9.192;2023-05-10T06:14:58;5.43;;;1.00;;
41139;SDS011;26881;48.784;9.192;2023-05-10T06:20:19;1.92;;;1.20;;
41139;SDS011;26881;48.784;9.192;2023-05-10T06:25:41;2.67;;;1.58;;
41139;SDS011;26881;48.784;9.192;2023-05-10T06:31:03;4.00;;;1.30;;
41139;SDS011;26881;48.784;9.192;2023-05-10T06:36:26;5.38;;;1.35;;
41139;SDS011;26881;48.784;9.192;2023-05-10T06:41:48;5.72;;;1.60;;
41139;SDS011;26881;48.784;9.192;2023-05-10T06:47:10;3.75;;;1.23;;
41139;SDS011;26881;48.784;9.192;2023-05-10T06:52:32;4.28;;;1.40;;
41139;SDS011;26881;48.784;9.192;2023-05-10T06:57:54;5.28;;;1.40;;
41139;SDS011;26881;48.784;9.192;2023-05-10T07:03:15;3.80;;;1.40;;
41139;SDS011;26881;48.784;9.192;2023-05-10T07:08:37;2.30;;;1.35;;
41139;SDS011;26881;48.784;9.192;2023-05-10T07:13:59;1.48;;;1.05;;
41139;SDS011;26881;48.784;9.192;2023-05-10T07:19:21;2.38;;;1.50;;
41139;SDS011;26881;48.784;9.192;2023-05-10T07:24:43;1.67;;;1.58;;
41139;SDS011;26881;48.784;9.192;2023-05-10T07:30:05;3.53;;;1.40;;
41139;SDS011;26881;48.784;9.192;2023-05-10T07:35:27;7.40;;;1.40;;
41139;SDS011;26881;48.784;9.192;2023-05-10T07:40:49;4.75;;;1.58;;
41139;SDS011;26881;48.784;9.192;2023-05-10T07:46:11;1.70;;;1.50;;
41139;SDS011;26881;48.784;9.192;2023-05-10T07:51:32;2.05;;;1.50;;
41139;SDS011;26881;48.784;9.192;2023-05-10T07:56:55;1.33;;;1.00;;
41139;SDS011;26881;48.784;9.192;2023-05-10T08:02:16;3.42;;;1.15;;
41139;SDS011;26881;48.784;9.192;2023-05-10T08:07:38;2.38;;;1.13;;
41139;SDS011;26881;48.784;9.192;2023-05-10T08:13:00;2.92;;;1.08;;
41139;SDS011;26881;48.784;9.192;2023-05-10T08:18:22;1.05;;;0.80;;
41139;SDS011;26881;48.784;9.192;2023-05-10T08:23:44;4.15;;;0.80;;
41139;SDS011;26881;48.784;9.192;2023-05-10T08:29:06;2.63;;;0.80;;
41139;SDS011;26881;48.784;9.192;2023-05-10T08:34:28;2.15;;;1.00;;
41139;SDS011;26881;48.784;9.192;2023-05-10T08:39:49;1.73;;;1.13;;
41139;SDS011;26881;48.784;9.192;2023-05-10T08:45:11;5.00;;;0.95;;
41139;SDS011;26881;48.784;9.192;2023-05-10T08:50:35;0.77;;;0.73;;
41139;SDS011;26881;48.784;9.192;2023-05-10T08:55:58;2.85;;;0.70;;
41139;SDS011;26881;48.784;9.192;2023-05-10T09:01:20;2.92;;;0.90;;
41139;SDS011;26881;48.784;9.192;2023-05-10T09:06:43;1.98;;;0.70;;
41139;SDS011;26881;48.784;9.192;2023-05-10T09:12:04;2.10;;;0.80;;
41139;SDS011;26881;48.784;9.192;2023-05-10T09:17:27;0.77;;;0.75;;
41139;SDS011;26881;48.784;9.192;2023-05-10T09:22:51;2.35;;;0.60;;
41139;SDS011;26881;48.784;9.192;2023-05-10T09:28:12;1.17;;;0.70;;
41139;SDS011;26881;48.784;9.192;2023-05-10T09:33:43;4.07;;;0.70;;
41139;SDS011;26881;48.784;9.192;2023-05-10T09:39:05;0.93;;;0.68;;
41139;SDS011;26881;48.784;9.192;2023-05-10T09:44:27;1.25;;;0.70;;
41139;SDS011;26881;48.784;9.192;2023-05-10T09:49:49;1.52;;;0.85;;
41139;SDS011;26881;48.784;9.192;2023-05-10T09:55:12;1.27;;;0.80;;
41139;SDS011;26881;48.784;9.192;2023-05-10T10:00:52;6.10;;;1.02;;
41139;SDS011;26881;48.784;9.192;2023-05-10T10:06:18;4.35;;;0.77;;
41139;SDS011;26881;48.784;9.192;2023-05-10T10:11:51;2.70;;;0.85;;
41139;SDS011;26881;48.784;9.192;2023-05-10T10:17:12;0.70;;;0.70;;
41139;SDS011;26881;48.784;9.192;2023-05-10T10:22:34;2.30;;;0.60;;
41139;SDS011;26881;48.784;9.192;2023-05-10T10:28:05;2.40;;;0.70;;
41139;SDS011;26881;48.784;9.192;2023-05-10T10:39:09;1.48;;;0.60;;
41139;SDS011;26881;48.784;9.192;2023-05-10T10:55:20;1.65;;;0.98;;
41139;SDS011;26881;48.784;9.192;2023-05-10T11:00:46;1.30;;;0.70;;
41139;SDS011;26881;48.784;9.192;2023-05-10T11:06:08;1.60;;;0.60;;
41139;SDS011;26881;48.784;9.192;2023-05-10T11:11:30;4.38;;;0.50;;
41139;SDS011;26881;48.784;9.192;2023-05-10T11:16:52;2.10;;;0.43;;
41139;SDS011;26881;48.784;9.192;2023-05-10T11:22:14;1.25;;;0.57;;
41139;SDS011;26881;48.784;9.192;2023-05-10T11:27:36;0.43;;;0.43;;
41139;SDS011;26881;48.784;9.192;2023-05-10T11:32:59;0.57;;;0.43;;
41139;SDS011;26881;48.784;9.192;2023-05-10T11:38:21;0.88;;;0.50;;
41139;SDS011;26881;48.784;9.192;2023-05-10T11:43:42;4.35;;;0.93;;
41139;SDS011;26881;48.784;9.192;2023-05-10T11:49:05;2.13;;;0.80;;
41139;SDS011;26881;48.784;9.192;2023-05-10T11:54:28;8.00;;;0.75;;
41139;SDS011;26881;48.784;9.192;2023-05-10T11:59:53;2.55;;;1.00;;
41139;SDS011;26881;48.784;9.192;2023-05-10T12:05:16;2.88;;;0.90;;
41139;SDS011;26881;48.784;9.192;2023-05-10T12:10:38;4.80;;;0.57;;
41139;SDS011;26881;48.784;9.192;2023-05-10T12:16:00;2.42;;;1.00;;
41139;SDS011;26881;48.784;9.192;2023-05-10T12:21:43;4.32;;;0.90;;
41139;SDS011;26881;48.784;9.192;2023-05-10T12:27:05;2.40;;;0.90;;
41139;SDS011;26881;48.784;9.192;2023-05-10T12:32:41;0.93;;;0.80;;
41139;SDS011;26881;48.784;9.192;2023-05-10T12:38:22;2.08;;;1.00;;
41139;SDS011;26881;48.784;9.192;2023-05-10T12:43:46;2.55;;;1.17;;
41139;SDS011;26881;48.784;9.192;2023-05-10T12:49:09;3.67;;;1.00;;
41139;SDS011;26881;48.784;9.192;2023-05-10T12:54:31;3.55;;;0.90;;
41139;SDS011;26881;48.784;9.192;2023-05-10T12:59:53;7.88;;;0.90;;
41139;SDS011;26881;48.784;9.192;2023-05-10T13:05:15;4.38;;;0.90;;
41139;SDS011;26881;48.784;9.192;2023-05-10T13:10:37;2.50;;;0.88;;
41139;SDS011;26881;48.784;9.192;2023-05-10T13:15:59;4.20;;;0.80;;
41139;SDS011;26881;48.784;9.192;2023-05-10T13:21:21;2.75;;;1.10;;
41139;SDS011;26881;48.784;9.192;2023-05-10T13:26:43;2.00;;;1.00;;
41139;SDS011;26881;48.784;9.192;2023-05-10T13:32:04;1.40;;;0.80;;
41139;SDS011;26881;48.784;9.192;2023-05-10T13:37:26;2.30;;;0.98;;
41139;SDS011;26881;48.784;9.192;2023-05-10T13:42:48;5.95;;;1.38;;
41139;SDS011;26881;48.784;9.192;2023-05-10T13:48:10;2.10;;;1.35;;
41139;SDS011;26881;48.784;9.192;2023-05-10T13:53:31;2.38;;;1.23;;
41139;SDS011;26881;48.784;9.192;2023-05-10T13:58:53;3.28;;;1.02;;
41139;SDS011;26881;48.784;9.192;2023-05-10T14:04:15;2.60;;;0.70;;
41139;SDS011;26881;48.784;9.192;2023-05-10T14:09:37;2.80;;;0.90;;
41139;SDS011;26881;48.784;9.192;2023-05-10T14:14:58;2.95;;;1.00;;
41139;SDS011;26881;48.784;9.192;2023-05-10T14:20:20;2.45;;;1.20;;
41139;SDS011;26881;48.784;9.192;2023-05-10T14:25:42;4.47;;;0.85;;
41139;SDS011;26881;48.784;9.192;2023-05-10T14:31:04;1.05;;;0.90;;
41139;SDS011;26881;48.784;9.192;2023-05-10T14:36:26;2.50;;;1.08;;
41139;SDS011;26881;48.784;9.192;2023-05-10T14:41:48;2.00;;;0.80;;
41139;SDS011;26881;48.784;9.192;2023-05-10T14:47:10;2.92;;;0.60;;
41139;SDS011;26881;48.784;9.192;2023-05-10T14:52:32;2.22;;;0.63;;
41139;SDS011;26881;48.784;9.192;2023-05-10T14:57:55;2.10;;;0.85;;
41139;SDS011;26881;48.784;9.192;2023-05-10T15:03:16;4.18;;;0.80;;
41139;SDS011;26881;48.784;9.192;2023-05-10T15:08:39;1.52;;;0.70;;
41139;SDS011;26881;48.784;9.192;2023-05-10T15:14:00;3.00;;;0.73;;
41139;SDS011;26881;48.784;9.192;2023-05-10T15:19:23;1.45;;;0.60;;
41139;SDS011;26881;48.784;9.192;2023-05-10T15:24:44;1.55;;;0.82;;
41139;SDS011;26881;48.784;9.192;2023-05-10T15:30:06;2.00;;;0.75;;
41139;SDS011;26881;48.784;9.192;2023-05-10T15:35:28;3.95;;;0.80;;
41139;SDS011;26881;48.784;9.192;2023-05-10T15:40:50;2.85;;;0.90;;
41139;SDS011;26881;48.784;9.192;2023-05-10T15:46:12;3.13;;;0.90;;
41139;SDS011;26881;48.784;9.192;2023-05-10T15:51:34;2.20;;;1.15;;
41139;SDS011;26881;48.784;9.192;2023-05-10T15:56:57;1.25;;;0.80;;
41139;SDS011;26881;48.784;9.192;2023-05-10T16:02:20;1.90;;;0.68;;
41139;SDS011;26881;48.784;9.192;2023-05-10T16:07:44;1.73;;;0.73;;
41139;SDS011;26881;48.784;9.192;2023-05-10T16:13:05;2.15;;;0.90;;
41139;SDS011;26881;48.784;9.192;2023-05-10T16:18:27;0.82;;;0.70;;
41139;SDS011;26881;48.784;9.192;2023-05-10T16:23:49;2.95;;;0.90;;
41139;SDS011;26881;48.784;9.192;2023-05-10T16:29:11;4.10;;;0.85;;
41139;SDS011;26881;48.784;9.192;2023-05-10T16:34:32;2.15;;;0.90;;
41139;SDS011;26881;48.784;9.192;2023-05-10T16:39:54;1.17;;;0.80;;
41139;SDS011;26881;48.784;9.192;2023-05-10T16:45:16;1.95;;;0.70;;
41139;SDS011;26881;48.784;9.192;2023-05-10T16:50:41;0.75;;;0.70;;
41139;SDS011;26881;48.784;9.192;2023-05-10T16:56:04;1.90;;;1.20;;
41139;SDS011;26881;48.784;9.192;2023-05-10T17:01:26;0.98;;;0.70;;
41139;SDS011;26881;48.784;9.192;2023-05-10T17:06:48;1.15;;;0.75;;
41139;SDS011;26881;48.784;9.192;2023-05-10T17:12:10;1.23;;;0.75;;
41139;SDS011;26881;48.784;9.192;2023-05-10T17:17:32;0.52;;;0.52;;
41139;SDS011;26881;48.784;9.192;2023-05-10T17:22:53;0.70;;;0.70;;
41139;SDS011;26881;48.784;9.192;2023-05-10T17:28:15;3.15;;;1.63;;
41139;SDS011;26881;48.784;9.192;2023-05-10T17:33:37;2.30;;;0.90;;
41139;SDS011;26881;48.784;9.192;2023-05-10T17:38:59;2.33;;;0.60;;
41139;SDS011;26881;48.784;9.192;2023-05-10T17:44:21;1.02;;;0.70;;
41139;SDS011;26881;48.784;9.192;2023-05-10T17:49:43;1.38;;;0.60;;
41139;SDS011;26881;48.784;9.192;2023-05-10T17:55:05;2.08;;;0.73;;
41139;SDS011;26881;48.784;9.192;2023-05-10T18:00:27;2.28;;;1.23;;
41139;SDS011;26881;48.784;9.192;2023-05-10T18:05:49;1.75;;;0.90;;
41139;SDS011;26881;48.784;9.192;2023-05-10T18:11:11;2.20;;;0.90;;
41139;SDS011;26881;48.784;9.192;2023-05-10T18:16:33;2.50;;;1.60;;
41139;SDS011;26881;48.784;9.192;2023-05-10T18:21:54;6.03;;;1.55;;
41139;SDS011;26881;48.784;9.192;2023-05-10T18:27:16;1.23;;;1.08;;
41139;SDS011;26881;48.784;9.192;2023-05-10T18:32:38;2.72;;;1.30;;
41139;SDS011;26881;48.784;9.192;2023-05-10T18:38:00;3.55;;;1.20;;
41139;SDS011;26881;48.784;9.192;2023-05-10T18:43:22;2.83;;;1.30;;
41139;SDS011;26881;48.784;9.192;2023-05-10T18:48:44;2.40;;;1.50;;
41139;SDS011;26881;48.784;9.192;2023-05-10T18:54:06;3.45;;;1.75;;
41139;SDS011;26881;48.784;9.192;2023-05-10T18:59:28;3.88;;;1.50;;
41139;SDS011;26881;48.784;9.192;2023-05-10T19:04:50;1.98;;;1.27;;
41139;SDS011;26881;48.784;9.192;2023-05-10T19:10:12;1.88;;;1.27;;
41139;SDS011;26881;48.784;9.192;2023-05-10T19:15:36;3.38;;;1.40;;
41139;SDS011;26881;48.784;9.192;2023-05-10T19:20:58;4.43;;;2.00;;
41139;SDS011;26881;48.784;9.192;2023-05-10T19:26:24;2.78;;;1.35;;
41139;SDS011;26881;48.784;9.192;2023-05-10T19:31:46;1.75;;;1.60;;
41139;SDS011;26881;48.784;9.192;2023-05-10T19:37:11;1.85;;;1.63;;
41139;SDS011;26881;48.784;9.192;2023-05-10T19:42:33;7.43;;;1.60;;
41139;SDS011;26881;48.784;9.192;2023-05-10T19:47:55;3.90;;;1.30;;
41139;SDS011;26881;48.784;9.192;2023-05-10T19:53:17;2.22;;;1.17;;
41139;SDS011;26881;48.784;9.192;2023-05-10T19:58:39;1.55;;;1.05;;
41139;SDS011;26881;48.784;9.192;2023-05-10T20:04:01;1.63;;;1.25;;
41139;SDS011;26881;48.784;9.192;2023-05-10T20:09:23;5.15;;;1.83;;
41139;SDS011;26881;48.784;9.192;2023-05-10T20:14:44;2.83;;;1.40;;
41139;SDS011;26881;48.784;9.192;2023-05-10T20:20:06;5.15;;;2.00;;
41139;SDS011;26881;48.784;9.192;2023-05-10T20:25:28;4.65;;;2.00;;
41139;SDS011;26881;48.784;9.192;2023-05-10T20:30:51;2.80;;;1.58;;
41139;SDS011;26881;48.784;9.192;2023-05-10T20:36:15;2.28;;;1.45;;
41139;SDS011;26881;48.784;9.192;2023-05-10T20:41:37;1.65;;;0.95;;
41139;SDS011;26881;48.784;9.192;2023-05-10T20:46:59;1.98;;;1.40;;
41139;SDS011;26881;48.784;9.192;2023-05-10T20:52:21;2.33;;;1.10;;
41139;SDS011;26881;48.784;9.192;2023-05-10T20:57:45;3.28;;;1.40;;
41139;SDS011;26881;48.784;9.192;2023-05-10T21:03:07;3.17;;;1.27;;
41139;SDS011;26881;48.784;9.192;2023-05-10T21:08:29;4.40;;;1.45;;
41139;SDS011;26881;48.784;9.192;2023-05-10T21:13:51;1.77;;;1.10;;
41139;SDS011;26881;48.784;9.192;2023-05-10T21:19:12;3.30;;;1.10;;
41139;SDS011;26881;48.784;9.192;2023-05-10T21:24:34;1.08;;;0.90;;
41139;SDS011;26881;48.784;9.192;2023-05-10T21:29:56;1.00;;;0.90;;
41139;SDS011;26881;48.784;9.192;2023-05-10T21:35:18;3.40;;;1.20;;
41139;SDS011;26881;48.784;9.192;2023-05-10T21:40:39;3.05;;;1.02;;
41139;SDS011;26881;48.784;9.192;2023-05-10T21:46:01;2.35;;;1.13;;
41139;SDS011;26881;48.784;9.192;2023-05-10T21:51:23;2.00;;;1.00;;
41139;SDS011;26881;48.784;9.192;2023-05-10T21:56:45;7.53;;;1.48;;
41139;SDS011;26881;48.784;9.192;2023-05-10T22:02:06;2.17;;;0.90;;
41139;SDS011;26881;48.784;9.192;2023-05-10T22:07:31;1.13;;;0.88;;
41139;SDS011;26881;48.784;9.192;2023-05-10T22:12:53;4.45;;;0.88;;
41139;SDS011;26881;48.784;9.192;2023-05-10T22:18:16;4.15;;;1.00;;
41139;SDS011;26881;48.784;9.192;2023-05-10T22:23:37;1.70;;;1.00;;
41139;SDS011;26881;48.784;9.192;2023-05-10T22:28:59;1.95;;;0.98;;
41139;SDS011;26881;48.784;9.192;2023-05-10T22:34:21;6.22;;;1.13;;
41139;SDS011;26881;48.784;9.192;2023-05-10T22:39:45;1.77;;;1.00;;
41139;SDS011;26881;48.784;9.192;2023-05-10T22:45:09;2.10;;;0.90;;
41139;SDS011;26881;48.784;9.192;2023-05-10T22:50:31;2.70;;;0.85;;
41139;SDS011;26881;48.784;9.192;2023-05-10T22:55:52;2.58;;;1.10;;
41139;SDS011;26881;48.784;9.192;2023-05-10T23:01:14;2.22;;;1.10;;
41139;SDS011;26881;48.784;9.192;2023-05-10T23:06:36;3.00;;;1.20;;
41139;SDS011;26881;48.784;9.192;2023-05-10T23:11:59;1.10;;;0.80;;
41139;SDS011;26881;48.784;9.192;2023-05-10T23:17:21;2.30;;;0.60;;
41139;SDS011;26881;48.784;9.192;2023-05-10T23:22:43;2.85;;;0.80;;
41139;SDS011;26881;48.784;9.192;2023-05-10T23:28:05;0.82;;;0.80;;
41139;SDS011;26881;48.784;9.192;2023-05-10T23:33:27;0.93;;;0.80;;
41139;SDS011;26881;48.784;9.192;2023-05-10T23:38:48;1.98;;;0.75;;
41139;SDS011;26881;48.784;9.192;2023-05-10T23:44:10;1.60;;;0.70;;
41139;SDS011;26881;48.784;9.192;2023-05-10T23:49:32;1.35;;;0.85;;
41139;SDS011;26881;48.784;9.192;2023-05-10T23:54:54;1.60;;;1.20;;
